createdAt,value
2023-01-09T05:37:23.467Z,71.10
2023-01-09T05:40:40.358Z,71.10
2023-01-09T05:43:54.530Z,71.80
2023-01-09T05:47:08.473Z,70.36
2023-01-09T05:50:22.504Z,69.80
2023-01-09T05:53:37.899Z,69.68
2023-01-09T05:56:51.847Z,69.68
2023-01-09T06:00:06.583Z,69.12
2023-01-09T06:03:20.522Z,69.34
2023-01-09T06:06:34.498Z,70.74
2023-01-09T06:09:49.855Z,69.92
2023-01-09T06:13:03.820Z,69.83
2023-01-09T06:16:18.480Z,69.30
2023-01-09T06:19:32.421Z,69.30
2023-01-09T06:22:46.335Z,70.50
2023-01-09T06:26:01.741Z,70.20
2023-01-09T06:29:15.630Z,68.49
2023-01-09T06:32:29.537Z,67.08
2023-01-09T06:35:43.406Z,67.52
2023-01-09T06:38:57.778Z,66.30
2023-01-09T06:42:13.118Z,67.65
2023-01-09T06:45:27.216Z,69.78
2023-01-09T06:48:41.124Z,68.38
2023-01-09T06:51:55.060Z,68.15
2023-01-09T06:55:10.089Z,69.73
2023-01-09T06:58:27.047Z,69.11
2023-01-09T07:01:41.371Z,70.18
2023-01-09T07:04:56.813Z,69.75
2023-01-09T07:08:10.769Z,69.24
2023-01-09T07:11:25.152Z,70.23
2023-01-09T07:14:40.507Z,70.28
2023-01-09T07:17:54.605Z,69.47
2023-01-09T07:21:08.803Z,70.18
2023-01-09T07:24:22.744Z,73.32
2023-01-09T07:27:36.603Z,71.21
2023-01-09T07:30:52.077Z,71.12
2023-01-09T07:34:05.992Z,69.79
2023-01-09T07:37:19.976Z,69.78
2023-01-09T07:40:33.933Z,70.94
2023-01-09T07:43:47.839Z,71.30
2023-01-09T07:47:02.813Z,70.92
2023-01-09T07:50:16.816Z,70.50
2023-01-09T07:53:31.237Z,70.21
2023-01-09T07:56:45.540Z,72.09
2023-01-09T08:00:01.188Z,72.87
2023-01-09T08:03:16.495Z,71.83
2023-01-09T08:06:30.780Z,72.61
2023-01-09T08:09:44.778Z,71.32
2023-01-09T08:12:58.756Z,71.33
2023-01-09T08:16:12.929Z,71.53
2023-01-09T08:19:28.633Z,73.59
2023-01-09T08:22:42.819Z,70.93
2023-01-09T08:25:56.802Z,72.28
2023-01-09T08:29:11.271Z,71.51
2023-01-09T08:32:29.881Z,70.05
2023-01-09T08:35:46.631Z,71.80
2023-01-09T08:39:01.348Z,72.36
2023-01-09T08:42:32.630Z,72.28
2023-01-09T08:46:15.795Z,73.19
2023-01-09T08:49:29.782Z,75.58
2023-01-09T08:52:45.132Z,76.31
2023-01-09T08:55:59.271Z,77.72
2023-01-09T08:59:13.236Z,77.31
2023-01-09T09:02:27.328Z,75.68
2023-01-09T09:05:41.314Z,75.68
2023-01-09T09:08:56.676Z,75.91
2023-01-09T09:12:10.647Z,75.17
2023-01-09T09:15:25.340Z,78.13
2023-01-09T09:18:40.217Z,78.06
2023-01-09T09:21:54.200Z,74.95
2023-01-09T09:25:10.221Z,73.82
2023-01-09T09:28:24.219Z,73.58
2023-01-09T09:31:38.775Z,74.29
2023-01-09T09:34:52.770Z,74.09
2023-01-09T09:38:06.882Z,75.72
2023-01-09T09:42:10.487Z,75.42
2023-01-09T09:45:28.554Z,75.51
2023-01-09T09:48:44.786Z,77.53
2023-01-09T09:52:00.976Z,77.52
2023-01-09T09:55:17.947Z,76.68
2023-01-09T09:58:37.191Z,77.00
2023-01-09T10:01:54.249Z,76.27
2023-01-09T10:05:13.176Z,78.23
2023-01-09T10:08:30.728Z,77.43
2023-01-09T10:11:46.150Z,76.24
2023-01-09T10:15:02.290Z,76.62
2023-01-09T10:18:20.805Z,75.40
2023-01-09T10:21:36.723Z,76.39
2023-01-09T10:24:57.228Z,74.89
2023-01-09T10:28:28.188Z,75.76
2023-01-09T10:31:48.812Z,77.17
2023-01-09T10:35:11.519Z,75.59
2023-01-09T10:38:26.846Z,75.89
2023-01-09T10:41:42.512Z,74.27
2023-01-09T10:44:58.869Z,74.99
2023-01-09T10:48:20.790Z,77.64
2023-01-09T10:51:38.341Z,75.31
2023-01-09T10:54:56.195Z,76.44
2023-01-09T10:58:12.970Z,76.49
2023-01-09T11:01:29.103Z,77.95
2023-01-09T11:04:44.439Z,75.04
2023-01-09T11:07:59.742Z,75.15
2023-01-09T11:11:14.058Z,75.36
2023-01-09T11:14:31.572Z,73.57
2023-01-09T11:17:45.579Z,74.05
2023-01-09T11:21:04.315Z,73.67
2023-01-09T11:24:29.701Z,74.49
2023-01-09T11:27:43.648Z,75.09
2023-01-09T11:30:59.882Z,74.40
2023-01-09T11:34:17.403Z,74.66
2023-01-09T11:37:32.746Z,75.19
2023-01-09T11:40:49.480Z,73.22
2023-01-09T11:44:04.445Z,73.85
2023-01-09T11:47:28.934Z,72.09
2023-01-09T11:50:43.051Z,71.45
2023-01-09T11:54:12.245Z,71.90
2023-01-09T11:57:26.295Z,69.77
2023-01-09T12:00:42.851Z,70.75
2023-01-09T12:04:06.345Z,72.74
2023-01-09T12:07:31.243Z,72.32
2023-01-09T12:11:06.021Z,71.10
2023-01-09T12:14:33.886Z,71.78
2023-01-09T12:18:09.691Z,72.52
2023-01-09T12:21:30.763Z,73.04
2023-01-09T12:24:55.132Z,75.56
2023-01-09T12:28:21.760Z,77.33
2023-01-09T12:31:45.717Z,77.05
2023-01-09T12:35:01.210Z,78.75
2023-01-09T12:38:27.854Z,77.34
2023-01-09T12:41:49.551Z,77.23
2023-01-09T12:45:17.465Z,77.16
2023-01-09T12:48:59.997Z,77.95
2023-01-09T12:52:17.497Z,76.68
2023-01-09T12:55:33.939Z,78.22
2023-01-09T12:58:50.474Z,78.84
2023-01-09T13:02:21.178Z,78.81
2023-01-09T13:05:36.857Z,76.94
2023-01-09T13:08:52.785Z,76.84
2023-01-09T13:12:09.412Z,76.12
2023-01-09T13:15:29.084Z,78.77
2023-01-09T13:18:45.518Z,79.47
2023-01-09T13:21:59.992Z,80.54
2023-01-09T13:25:28.386Z,80.65
2023-01-09T13:28:43.830Z,80.23
2023-01-09T13:32:25.184Z,80.74
2023-01-09T13:35:51.076Z,78.68
2023-01-09T13:39:05.172Z,81.19
2023-01-09T13:42:39.270Z,80.96
2023-01-09T13:45:53.217Z,79.95
2023-01-09T13:49:08.966Z,78.61
2023-01-09T13:52:36.720Z,76.61
2023-01-09T13:56:06.225Z,78.56
2023-01-09T13:59:28.337Z,76.49
2023-01-09T14:02:58.196Z,74.06
2023-01-09T14:06:21.696Z,77.51
2023-01-09T14:09:38.044Z,79.63
2023-01-09T14:12:52.254Z,79.37
2023-01-09T14:16:07.618Z,77.70
2023-01-09T14:19:37.390Z,77.20
2023-01-09T14:22:56.476Z,77.17
2023-01-09T14:26:20.047Z,75.40
2023-01-09T14:29:44.817Z,75.24
2023-01-09T14:32:59.081Z,75.74
2023-01-09T14:36:18.735Z,75.58
2023-01-09T14:39:32.999Z,75.19
2023-01-09T14:42:48.403Z,74.21
2023-01-09T14:46:06.173Z,74.85
2023-01-09T14:49:24.038Z,74.69
2023-01-09T14:52:39.607Z,73.83
2023-01-09T14:55:54.770Z,73.36
2023-01-09T14:59:13.899Z,73.19
2023-01-09T15:02:29.226Z,73.62
2023-01-09T15:05:43.508Z,72.84
2023-01-09T15:08:59.095Z,73.84
2023-01-09T15:12:16.829Z,73.22
2023-01-09T15:15:32.194Z,72.95
2023-01-09T15:18:46.351Z,72.03
2023-01-09T15:22:02.144Z,73.19
2023-01-09T15:25:37.713Z,73.35
2023-01-09T15:28:53.060Z,73.98
2023-01-09T15:32:10.910Z,74.89
2023-01-09T15:35:24.940Z,75.69
2023-01-09T15:38:40.168Z,76.56
2023-01-09T15:42:11.784Z,77.18
2023-01-09T15:45:27.669Z,76.84
2023-01-09T15:48:42.991Z,75.76
2023-01-09T15:51:56.900Z,76.55
2023-01-09T15:55:35.786Z,76.20
2023-01-09T15:58:49.812Z,76.71
2023-01-09T16:02:22.495Z,76.56
2023-01-09T16:05:40.471Z,76.69
2023-01-09T16:08:56.277Z,77.17
2023-01-09T16:12:18.878Z,77.30
2023-01-09T16:15:34.235Z,76.50
2023-01-09T16:18:51.606Z,77.34
